Airport View

Enter AWOS ICAO identifier for current METAR.

ex. KFNL

KTKV 030042Z AUTO 27011G15KT 10SM SCT100 BKN120 18/15 A2982 RMK AO2 T01810147 PWINO

3 Jun 2020 00:44

Frequency: 118.250

Phone: 715-453-5716

Other Area AWOS: KRRL - KRHI - KARV - KPBH

TAF KRHI 022330Z 0300/0324 30007KT P6SM BKN070 TEMPO 0300/0304 4SM -SHRA BKN030 FM031000 30005KT P6SM SKC